createdAt,value
2023-04-24T05:52:24.727Z,144106.72
2023-04-24T05:57:31.402Z,144221.25
2023-04-24T06:02:39.127Z,144310.91
2023-04-24T06:07:45.853Z,144390.63
2023-04-24T06:12:49.526Z,144507.75
2023-04-24T06:17:54.616Z,144536.44
2023-04-24T06:22:59.589Z,144769.59
2023-04-24T06:28:03.604Z,144681.03
2023-04-24T06:33:19.961Z,144758.38
2023-04-24T06:38:29.065Z,145009.22
2023-04-24T06:43:32.576Z,145156.56
2023-04-24T06:48:35.956Z,145207.81
2023-04-24T06:53:40.882Z,145262.78
2023-04-24T06:58:49.480Z,145199.03
2023-04-24T07:03:55.483Z,145254.00
2023-04-24T07:09:01.371Z,145236.53
2023-04-24T07:14:05.404Z,145129.09
2023-04-24T07:19:08.987Z,145012.97
2023-04-24T07:24:13.919Z,144977.97
2023-04-24T07:29:17.282Z,145224.00
2023-04-24T07:34:22.731Z,144991.72
2023-04-24T07:39:27.594Z,144936.81
2023-04-24T07:44:31.013Z,144881.88
2023-04-24T07:49:39.179Z,144790.81
2023-04-24T07:54:45.182Z,144861.91
2023-04-24T07:59:48.910Z,144833.22
2023-04-24T08:04:52.713Z,144853.19
2023-04-24T08:10:00.349Z,144753.41
2023-04-24T08:15:05.975Z,144644.91
2023-04-24T08:20:14.344Z,144654.84
2023-04-24T08:25:20.219Z,144667.34
2023-04-24T08:30:26.096Z,144659.84
2023-04-24T08:35:31.526Z,144673.56
2023-04-24T08:40:39.436Z,144674.81
2023-04-24T08:45:42.833Z,144788.31
2023-04-24T08:50:46.990Z,144840.72
2023-04-24T08:55:52.711Z,144803.28
2023-04-24T09:00:56.896Z,144839.50
2023-04-24T09:06:02.977Z,144898.13
2023-04-24T09:11:30.829Z,144956.78
2023-04-24T09:16:39.190Z,144884.38
2023-04-24T09:21:44.879Z,144909.34
2023-04-24T09:26:49.405Z,144949.28
2023-04-24T09:31:54.739Z,144989.25
2023-04-24T09:37:04.877Z,144924.34
2023-04-24T09:42:16.411Z,144946.78
2023-04-24T09:47:21.406Z,144891.84
2023-04-24T09:52:26.156Z,144819.50
2023-04-24T09:57:29.740Z,144833.22
2023-04-24T10:02:38.269Z,144865.69
2023-04-24T10:07:46.720Z,144802.03
2023-04-24T10:12:54.749Z,144672.34
2023-04-24T10:18:02.753Z,144723.47
2023-04-24T10:23:09.105Z,144853.19
2023-04-24T10:28:16.853Z,144949.28
2023-04-24T10:33:28.316Z,144979.28
2023-04-24T10:38:32.853Z,144886.88
2023-04-24T10:43:36.649Z,144770.84
2023-04-24T10:48:48.980Z,144657.34
2023-04-24T10:53:55.237Z,144518.94
2023-04-24T10:58:58.832Z,144460.38
2023-04-24T11:04:05.457Z,144418.03
2023-04-24T11:09:19.399Z,144460.38
2023-04-24T11:14:22.938Z,144518.94
2023-04-24T11:19:30.644Z,144617.47
2023-04-24T11:24:40.235Z,144617.47
2023-04-24T11:29:51.054Z,144727.22
2023-04-24T11:34:58.092Z,144768.34
2023-04-24T11:40:02.550Z,144839.50
2023-04-24T11:45:12.112Z,144717.19
2023-04-24T11:50:18.093Z,144517.72
2023-04-24T11:55:28.961Z,144279.75
2023-04-24T12:00:41.019Z,144097.97
2023-04-24T12:05:48.360Z,143966.09
2023-04-24T12:11:24.734Z,144014.63
2023-04-24T12:16:28.349Z,144175.16
2023-04-24T12:21:35.727Z,144236.16
2023-04-24T12:26:44.740Z,144285.97
2023-04-24T12:31:48.157Z,144283.50
2023-04-24T12:36:52.891Z,144318.34
2023-04-24T12:42:00.219Z,144344.50
2023-04-24T12:47:05.908Z,144388.13
2023-04-24T12:52:10.928Z,144348.25
2023-04-24T12:57:27.105Z,144282.25
2023-04-24T13:02:32.215Z,144294.69
2023-04-24T13:07:39.085Z,144298.47
2023-04-24T13:12:47.432Z,144364.47
2023-04-24T13:17:52.131Z,144401.81
2023-04-24T13:22:59.478Z,144475.34
2023-04-24T13:28:05.859Z,144494.03
2023-04-24T13:33:09.319Z,144566.34
2023-04-24T13:38:14.138Z,144578.78
2023-04-24T13:43:17.749Z,144454.16
2023-04-24T13:48:21.753Z,144459.13
2023-04-24T13:53:27.525Z,144420.53
2023-04-24T13:58:31.136Z,144475.34
2023-04-24T14:03:35.379Z,144528.97
2023-04-24T14:08:40.405Z,144530.19
2023-04-24T14:13:44.653Z,144513.97
2023-04-24T14:18:51.253Z,144480.34
2023-04-24T14:23:56.006Z,144565.09
2023-04-24T14:29:11.642Z,144535.19
2023-04-24T14:34:18.923Z,144546.38
2023-04-24T14:39:23.838Z,144582.56
2023-04-24T14:44:27.361Z,144525.22
2023-04-24T14:49:30.957Z,144454.16
2023-04-24T14:54:52.243Z,144404.31
2023-04-24T14:59:55.659Z,144504.03
2023-04-24T15:04:59.979Z,144462.88
2023-04-24T15:10:05.324Z,144374.41
2023-04-24T15:15:10.089Z,144393.13
2023-04-24T15:20:13.586Z,144432.97
2023-04-24T15:25:18.586Z,144373.16
2023-04-24T15:30:21.892Z,144414.31
2023-04-24T15:35:25.359Z,144419.28
2023-04-24T15:40:30.150Z,144303.44
2023-04-24T15:45:34.571Z,144191.34
2023-04-24T15:50:37.940Z,144117.91
2023-04-24T15:55:47.965Z,144112.91
2023-04-24T16:00:51.286Z,144029.53
2023-04-24T16:05:57.845Z,144027.06
2023-04-24T16:11:06.159Z,143977.28
2023-04-24T16:16:09.387Z,143861.59
2023-04-24T16:21:12.692Z,143805.63
2023-04-24T16:26:17.371Z,143800.69
2023-04-24T16:31:23.458Z,143785.72
2023-04-24T16:36:26.941Z,143803.16
2023-04-24T16:41:31.765Z,143811.84
2023-04-24T16:46:35.249Z,143784.50
2023-04-24T16:51:42.752Z,143704.97
2023-04-24T16:56:47.885Z,143588.13
2023-04-24T17:01:51.280Z,143544.66
2023-04-24T17:06:54.916Z,143535.97
2023-04-24T17:11:59.641Z,143471.38
2023-04-24T17:17:03.223Z,143440.31
2023-04-24T17:22:06.773Z,143394.41
2023-04-24T17:27:15.642Z,143327.34
2023-04-24T17:32:19.078Z,143290.13
2023-04-24T17:37:23.397Z,143221.84
2023-04-24T17:42:28.050Z,143166.00
2023-04-24T17:47:34.023Z,143105.25
2023-04-24T17:52:39.569Z,143104.00
2023-04-24T17:57:44.377Z,143087.91
2023-04-24T18:02:49.686Z,143069.28
2023-04-24T18:07:53.280Z,143043.25
2023-04-24T18:12:58.145Z,143025.91
2023-04-24T18:18:03.989Z,142998.63
2023-04-24T18:23:09.900Z,142941.59
2023-04-24T18:28:17.219Z,142924.25
2023-04-24T18:33:20.516Z,142831.31
2023-04-24T18:38:23.845Z,142792.88
2023-04-24T18:43:28.726Z,142754.50
2023-04-24T18:48:34.495Z,142697.50
2023-04-24T18:53:37.756Z,142657.84
2023-04-24T18:58:46.176Z,142630.66
2023-04-24T19:03:49.823Z,142565.03
2023-04-24T19:08:53.421Z,142510.59
2023-04-24T19:14:00.468Z,142479.66
2023-04-24T19:19:05.510Z,142463.59
2023-04-24T19:24:10.921Z,142411.63
2023-04-24T19:29:15.673Z,142386.88
2023-04-24T19:34:19.090Z,142433.91
2023-04-24T19:39:22.690Z,142446.28
2023-04-24T19:44:27.382Z,142430.16
2023-04-24T19:49:31.258Z,142395.53
2023-04-24T19:54:37.537Z,142362.16
2023-04-24T19:59:42.366Z,142336.16
2023-04-24T20:04:46.177Z,142360.91
2023-04-24T20:09:49.730Z,142377.00
2023-04-24T20:14:54.438Z,142367.09
2023-04-24T20:19:57.823Z,142326.28
2023-04-24T20:25:01.332Z,142283.00
2023-04-24T20:30:10.386Z,142247.16
2023-04-24T20:35:13.753Z,142250.84
2023-04-24T20:40:17.743Z,142231.06
2023-04-24T20:45:24.216Z,142245.91
2023-04-24T20:50:27.750Z,142252.09
2023-04-24T20:55:31.283Z,142286.69
2023-04-24T21:00:36.385Z,142310.19
2023-04-24T21:05:39.872Z,142285.47
2023-04-24T21:10:43.325Z,142249.63
2023-04-24T21:15:48.164Z,142255.78
2023-04-24T21:20:51.780Z,142231.06
2023-04-24T21:25:55.174Z,142191.50
2023-04-24T21:30:59.941Z,142166.78
2023-04-24T21:36:05.954Z,142142.06
2023-04-24T21:41:09.250Z,142122.28
